Volcan De Tauce — EAGW — position and weather

sailwx.info

Track history (hours):
 
Tides and Currents Weather Stations Pressure Air Temp Water Temp Dewpoint Dewpoint Depression Visibility Wind Speed Wind Dir Waves Ship Positions

Volcan De Tauce

Last reported at 2017-Feb-22 02:33 UTC. Time now 2017-Feb-22 04:08 UTC.
Position N 28°02' W 014°39'.

Length 120 m; draft 4.8 m.

Type: Passenger vessel. MMSI: 224761000.

Date/timePositionNaut miles runAvg speedWind from/ knotsBaromVisibWave heightAir tempDewpointWater temp
2017-Feb-22 02:33N 28°02' W 014°39'1515.2
2017-Feb-22 01:33N 28°04' W 014°56'1515.2
2017-Feb-22 00:33N 28°06' W 015°13'1010.4
2017-Feb-21 23:33N 28°09' W 015°25'0 0.0
2017-Feb-21 22:33N 28°09' W 015°25'0 0.0
2017-Feb-21 21:33N 28°09' W 015°25'0 0.0
2017-Feb-21 20:33N 28°09' W 015°25'0 0.0
2017-Feb-21 19:33N 28°09' W 015°25'0 0.0
2017-Feb-21 18:33N 28°09' W 015°25'2 1.7
2017-Feb-21 17:33N 28°07' W 015°24'1514.8
2017-Feb-21 16:33N 28°05' W 015°07'1515.1
2017-Feb-21 15:33N 28°04' W 014°50'1514.9
2017-Feb-21 14:33N 28°02' W 014°33'1815.4
2017-Feb-21 13:24N 28°04' W 014°13'10 1.2
2017-Feb-21 05:13N 28°09' W 014°03'3914.7
2017-Feb-21 02:33N 28°03' W 014°47'1515.0
2017-Feb-21 01:33N 28°05' W 015°04'1515.0
2017-Feb-21 00:33N 28°06' W 015°21'4 4.1
2017-Feb-20 23:33N 28°09' W 015°25'0 0.0
2017-Feb-20 22:33N 28°09' W 015°25'0 0.0
2017-Feb-20 21:33N 28°09' W 015°25'0 0.0
2017-Feb-20 20:33N 28°09' W 015°25'0 0.0
2017-Feb-20 19:34N 28°09' W 015°25'0 0.4
2017-Feb-20 18:33N 28°09' W 015°25'0 0.0
2017-Feb-20 17:33N 28°09' W 015°25'0 0.0
2017-Feb-20 16:34N 28°09' W 015°25'0 0.0
2017-Feb-20 15:34N 28°09' W 015°25'0 0.0
2017-Feb-20 14:33N 28°09' W 015°25'0 0.0
2017-Feb-20 13:33N 28°09' W 015°25'0 0.0
2017-Feb-20 12:33N 28°09' W 015°25'0 0.0
2017-Feb-20 11:33N 28°09' W 015°25'0 0.0
2017-Feb-20 10:33N 28°09' W 015°25'0 0.0
2017-Feb-20 09:33N 28°09' W 015°25'85 1.8
2017-Feb-18 09:24N 28°30' W 013°51'0 0.0
2017-Feb-18 07:29N 28°30' W 013°51'3 2.8
2017-Feb-18 06:33N 28°28' W 013°50'1313.0
2017-Feb-18 05:32N 28°15' W 013°53'1515.0
2017-Feb-18 04:33N 28°07' W 014°07'1515.0
2017-Feb-18 03:33N 28°01' W 014°23'1515.3
2017-Feb-18 02:33N 28°03' W 014°40'1515.1
2017-Feb-18 01:33N 28°04' W 014°57'1615.6
2017-Feb-18 00:33N 28°06' W 015°15'10 9.5
2017-Feb-17 23:33N 28°08' W 015°25'0 0.0
2017-Feb-17 22:33N 28°08' W 015°25'0 0.0
2017-Feb-17 21:33N 28°08' W 015°25'0 0.0
2017-Feb-17 20:33N 28°08' W 015°25'0 0.0
2017-Feb-17 19:33N 28°08' W 015°25'0 0.0
2017-Feb-17 18:33N 28°08' W 015°25'0 0.2
2017-Feb-17 17:34N 28°08' W 015°25'1212.3
2017-Feb-17 16:34N 28°06' W 015°11'1615.5
2017-Feb-17 15:33N 28°04' W 014°54'1515.5
2017-Feb-17 14:33N 28°02' W 014°36'1616.2
2017-Feb-17 13:33N 28°02' W 014°18'3416.1
2017-Feb-17 11:25N 28°25' W 013°49'5 2.5
2017-Feb-17 09:27N 28°30' W 013°51'0 0.0
2017-Feb-17 08:31N 28°30' W 013°51'0 0.0
2017-Feb-17 07:33N 28°30' W 013°51'0 0.3
2017-Feb-17 06:33N 28°29' W 013°51'1413.4
2017-Feb-17 05:32N 28°16' W 013°53'3015.0
2017-Feb-17 03:33N 28°01' W 014°22'1515.4
2017-Feb-17 02:33N 28°03' W 014°39'1615.7
2017-Feb-17 01:33N 28°04' W 014°57'1615.9
2017-Feb-17 00:34N 28°06' W 015°15'9 9.0
2017-Feb-16 23:33N 28°08' W 015°25'0 0.0
2017-Feb-16 22:33N 28°08' W 015°25'0 0.0
2017-Feb-16 21:33N 28°08' W 015°25'0 0.0
2017-Feb-16 20:33N 28°08' W 015°25'0 0.0
2017-Feb-16 19:33N 28°08' W 015°25'0 0.0
2017-Feb-16 18:33N 28°08' W 015°25'1 0.9
2017-Feb-16 17:33N 28°08' W 015°24'1514.7
2017-Feb-16 16:33N 28°05' W 015°08'1615.6
2017-Feb-16 15:33N 28°04' W 014°51'1615.6
2017-Feb-16 14:33N 28°02' W 014°33'2015.5
2017-Feb-16 13:15N 28°06' W 014°10'1216.7
2017-Feb-16 12:30N 28°11' W 013°58'19 6.0
2017-Feb-16 09:20N 28°30' W 013°51'0 0.0
2017-Feb-16 08:32N 28°30' W 013°51'0 0.0
2017-Feb-16 07:32N 28°30' W 013°51'1 1.2
2017-Feb-16 06:32N 28°29' W 013°50'2114.1
2017-Feb-16 05:03N 28°10' W 014°00'915.8
2017-Feb-16 04:28N 28°06' W 014°09'2814.8
2017-Feb-16 02:33N 28°03' W 014°41'1615.7
2017-Feb-16 01:33N 28°05' W 014°59'1615.7
2017-Feb-16 00:33N 28°06' W 015°17'8 7.6
2017-Feb-15 23:33N 28°09' W 015°25'0 0.0
2017-Feb-15 22:33N 28°09' W 015°25'0 0.0
2017-Feb-15 21:33N 28°09' W 015°25'0 0.0
2017-Feb-15 20:33N 28°09' W 015°25'0 0.0
2017-Feb-15 19:33N 28°09' W 015°25'0 0.0
2017-Feb-15 18:33N 28°09' W 015°25'0 0.2
2017-Feb-15 17:33N 28°08' W 015°25'1313.1
2017-Feb-15 16:33N 28°06' W 015°10'1515.4
2017-Feb-15 15:33N 28°04' W 014°53'1615.7
2017-Feb-15 14:33N 28°02' W 014°35'1616.3
2017-Feb-15 13:33N 28°03' W 014°17'3315.4
2017-Feb-15 11:24N 28°25' W 013°49'5 1.3
2017-Feb-15 07:27N 28°30' W 013°51'1 1.2
2017-Feb-15 06:17N 28°29' W 013°50'1215.1
2017-Feb-15 05:29N 28°17' W 013°52'1415.2
2017-Feb-15 04:33N 28°08' W 014°05'3114.7
2017-Feb-15 02:27N 28°03' W 014°39'1415.6
2017-Feb-15 01:33N 28°04' W 014°55'1615.8
2017-Feb-15 00:33N 28°06' W 015°13'1110.8
2017-Feb-14 23:33N 28°09' W 015°25'0 0.0
2017-Feb-14 22:33N 28°09' W 015°25'0 0.0
2017-Feb-14 21:33N 28°09' W 015°25'0 0.0
2017-Feb-14 20:33N 28°09' W 015°25'0 0.0
2017-Feb-14 19:33N 28°09' W 015°25'0 0.0
2017-Feb-14 18:33N 28°09' W 015°25'1 1.1
2017-Feb-14 17:33N 28°07' W 015°24'1514.7
2017-Feb-14 16:33N 28°05' W 015°08'1515.3
2017-Feb-14 15:33N 28°04' W 014°51'1515.4
2017-Feb-14 14:33N 28°02' W 014°33'1715.8
2017-Feb-14 13:29N 28°04' W 014°14'32 4.5
2017-Feb-14 06:23N 28°27' W 013°50'2514.0
2017-Feb-14 04:33N 28°07' W 014°07'3214.7
2017-Feb-14 02:24N 28°03' W 014°43'1315.5
2017-Feb-14 01:33N 28°04' W 014°58'1615.6
2017-Feb-14 00:33N 28°06' W 015°15'9 8.8
2017-Feb-13 23:33N 28°08' W 015°25'0 0.0
2017-Feb-13 22:33N 28°08' W 015°25'0 0.0
2017-Feb-13 21:33N 28°08' W 015°25'0 0.0
2017-Feb-13 20:33N 28°08' W 015°25'0 0.0
2017-Feb-13 19:33N 28°08' W 015°25'0 0.0
2017-Feb-13 18:33N 28°08' W 015°25'0 0.0
2017-Feb-13 17:33N 28°08' W 015°25'0 0.0
2017-Feb-13 16:33N 28°08' W 015°25'0 0.0
2017-Feb-13 15:33N 28°08' W 015°25'0 0.0
2017-Feb-13 14:33N 28°08' W 015°25'0 0.0
2017-Feb-13 13:33N 28°08' W 015°25'0 0.0
2017-Feb-13 12:33N 28°08' W 015°25'0 0.0
2017-Feb-13 11:33N 28°08' W 015°25'0 0.0
2017-Feb-13 10:33N 28°08' W 015°25'0 0.0
2017-Feb-13 09:33N 28°08' W 015°25'0 0.0
2017-Feb-13 08:33N 28°08' W 015°25'0 0.0
2017-Feb-13 07:33N 28°08' W 015°25'0 0.0
2017-Feb-13 06:33N 28°08' W 015°25'0 0.0
2017-Feb-13 05:33N 28°08' W 015°25'0 0.0
2017-Feb-13 04:33N 28°08' W 015°25'0 0.0
2017-Feb-13 03:33N 28°08' W 015°25'0 0.0
2017-Feb-13 02:33N 28°08' W 015°25'0 0.0
2017-Feb-13 01:33N 28°08' W 015°25'0 0.0
2017-Feb-13 00:33N 28°08' W 015°25'0 0.0
2017-Feb-12 23:33N 28°08' W 015°25'0 0.0
2017-Feb-12 22:33N 28°08' W 015°25'0 0.0
2017-Feb-12 21:33N 28°08' W 015°25'0 0.0
2017-Feb-12 20:33N 28°08' W 015°25'0 0.0
2017-Feb-12 19:33N 28°08' W 015°25'0 0.0
2017-Feb-12 18:33N 28°08' W 015°25'0 0.0
2017-Feb-12 17:33N 28°08' W 015°25'0 0.0
2017-Feb-12 16:33N 28°08' W 015°25'0 0.0
2017-Feb-12 15:33N 28°08' W 015°25'0 0.0
2017-Feb-12 14:33N 28°08' W 015°25'0 0.0
2017-Feb-12 13:33N 28°08' W 015°25'0 0.0
2017-Feb-12 12:33N 28°08' W 015°25'0 0.0
2017-Feb-12 11:33N 28°08' W 015°25'0 0.0
2017-Feb-12 10:33N 28°08' W 015°25'0 0.0
2017-Feb-12 09:33N 28°08' W 015°25'0 0.0
2017-Feb-12 08:33N 28°08' W 015°25'0 0.0
2017-Feb-12 07:33N 28°08' W 015°25'0 0.0
2017-Feb-12 06:33N 28°08' W 015°25'0 0.0
2017-Feb-12 05:33N 28°08' W 015°25'0 0.0
2017-Feb-12 04:33N 28°08' W 015°25'0 0.0
2017-Feb-12 03:33N 28°08' W 015°25'0 0.0
2017-Feb-12 02:33N 28°08' W 015°25'  
Track history (hours):
 
Tides and Currents Weather Stations Pressure Air Temp Water Temp Dewpoint Dewpoint Depression Visibility Wind Speed Wind Dir Waves Ship Positions

Volcan De Tauce

Last reported at 2017-Feb-22 02:33 UTC. Time now 2017-Feb-22 04:08 UTC.
Position N 28°02' W 014°39'.

Length 120 m; draft 4.8 m.

Type: Passenger vessel. MMSI: 224761000.

Date/timePositionNaut miles runAvg speedWind from/ knotsBaromVisibWave heightAir tempDewpointWater temp
2017-Feb-22 02:33N 28°02' W 014°39'1515.2
2017-Feb-22 01:33N 28°04' W 014°56'1515.2
2017-Feb-22 00:33N 28°06' W 015°13'1010.4
2017-Feb-21 23:33N 28°09' W 015°25'0 0.0
2017-Feb-21 22:33N 28°09' W 015°25'0 0.0
2017-Feb-21 21:33N 28°09' W 015°25'0 0.0
2017-Feb-21 20:33N 28°09' W 015°25'0 0.0
2017-Feb-21 19:33N 28°09' W 015°25'0 0.0
2017-Feb-21 18:33N 28°09' W 015°25'2 1.7
2017-Feb-21 17:33N 28°07' W 015°24'1514.8
2017-Feb-21 16:33N 28°05' W 015°07'1515.1
2017-Feb-21 15:33N 28°04' W 014°50'1514.9
2017-Feb-21 14:33N 28°02' W 014°33'1815.4
2017-Feb-21 13:24N 28°04' W 014°13'10 1.2
2017-Feb-21 05:13N 28°09' W 014°03'3914.7
2017-Feb-21 02:33N 28°03' W 014°47'1515.0
2017-Feb-21 01:33N 28°05' W 015°04'1515.0
2017-Feb-21 00:33N 28°06' W 015°21'4 4.1
2017-Feb-20 23:33N 28°09' W 015°25'0 0.0
2017-Feb-20 22:33N 28°09' W 015°25'0 0.0
2017-Feb-20 21:33N 28°09' W 015°25'0 0.0
2017-Feb-20 20:33N 28°09' W 015°25'0 0.0
2017-Feb-20 19:34N 28°09' W 015°25'0 0.4
2017-Feb-20 18:33N 28°09' W 015°25'0 0.0
2017-Feb-20 17:33N 28°09' W 015°25'0 0.0
2017-Feb-20 16:34N 28°09' W 015°25'0 0.0
2017-Feb-20 15:34N 28°09' W 015°25'0 0.0
2017-Feb-20 14:33N 28°09' W 015°25'0 0.0
2017-Feb-20 13:33N 28°09' W 015°25'0 0.0
2017-Feb-20 12:33N 28°09' W 015°25'0 0.0
2017-Feb-20 11:33N 28°09' W 015°25'0 0.0
2017-Feb-20 10:33N 28°09' W 015°25'0 0.0
2017-Feb-20 09:33N 28°09' W 015°25'85 1.8
2017-Feb-18 09:24N 28°30' W 013°51'0 0.0
2017-Feb-18 07:29N 28°30' W 013°51'3 2.8
2017-Feb-18 06:33N 28°28' W 013°50'1313.0
2017-Feb-18 05:32N 28°15' W 013°53'1515.0
2017-Feb-18 04:33N 28°07' W 014°07'1515.0
2017-Feb-18 03:33N 28°01' W 014°23'1515.3
2017-Feb-18 02:33N 28°03' W 014°40'1515.1
2017-Feb-18 01:33N 28°04' W 014°57'1615.6
2017-Feb-18 00:33N 28°06' W 015°15'10 9.5
2017-Feb-17 23:33N 28°08' W 015°25'0 0.0
2017-Feb-17 22:33N 28°08' W 015°25'0 0.0
2017-Feb-17 21:33N 28°08' W 015°25'0 0.0
2017-Feb-17 20:33N 28°08' W 015°25'0 0.0
2017-Feb-17 19:33N 28°08' W 015°25'0 0.0
2017-Feb-17 18:33N 28°08' W 015°25'0 0.2
2017-Feb-17 17:34N 28°08' W 015°25'1212.3
2017-Feb-17 16:34N 28°06' W 015°11'1615.5
2017-Feb-17 15:33N 28°04' W 014°54'1515.5
2017-Feb-17 14:33N 28°02' W 014°36'1616.2
2017-Feb-17 13:33N 28°02' W 014°18'3416.1
2017-Feb-17 11:25N 28°25' W 013°49'5 2.5
2017-Feb-17 09:27N 28°30' W 013°51'0 0.0
2017-Feb-17 08:31N 28°30' W 013°51'0 0.0
2017-Feb-17 07:33N 28°30' W 013°51'0 0.3
2017-Feb-17 06:33N 28°29' W 013°51'1413.4
2017-Feb-17 05:32N 28°16' W 013°53'3015.0
2017-Feb-17 03:33N 28°01' W 014°22'1515.4
2017-Feb-17 02:33N 28°03' W 014°39'1615.7
2017-Feb-17 01:33N 28°04' W 014°57'1615.9
2017-Feb-17 00:34N 28°06' W 015°15'9 9.0
2017-Feb-16 23:33N 28°08' W 015°25'0 0.0
2017-Feb-16 22:33N 28°08' W 015°25'0 0.0
2017-Feb-16 21:33N 28°08' W 015°25'0 0.0
2017-Feb-16 20:33N 28°08' W 015°25'0 0.0
2017-Feb-16 19:33N 28°08' W 015°25'0 0.0
2017-Feb-16 18:33N 28°08' W 015°25'1 0.9
2017-Feb-16 17:33N 28°08' W 015°24'1514.7
2017-Feb-16 16:33N 28°05' W 015°08'1615.6
2017-Feb-16 15:33N 28°04' W 014°51'1615.6
2017-Feb-16 14:33N 28°02' W 014°33'2015.5
2017-Feb-16 13:15N 28°06' W 014°10'1216.7
2017-Feb-16 12:30N 28°11' W 013°58'19 6.0
2017-Feb-16 09:20N 28°30' W 013°51'0 0.0
2017-Feb-16 08:32N 28°30' W 013°51'0 0.0
2017-Feb-16 07:32N 28°30' W 013°51'1 1.2
2017-Feb-16 06:32N 28°29' W 013°50'2114.1
2017-Feb-16 05:03N 28°10' W 014°00'915.8
2017-Feb-16 04:28N 28°06' W 014°09'2814.8
2017-Feb-16 02:33N 28°03' W 014°41'1615.7
2017-Feb-16 01:33N 28°05' W 014°59'1615.7
2017-Feb-16 00:33N 28°06' W 015°17'8 7.6
2017-Feb-15 23:33N 28°09' W 015°25'0 0.0
2017-Feb-15 22:33N 28°09' W 015°25'0 0.0
2017-Feb-15 21:33N 28°09' W 015°25'0 0.0
2017-Feb-15 20:33N 28°09' W 015°25'0 0.0
2017-Feb-15 19:33N 28°09' W 015°25'0 0.0
2017-Feb-15 18:33N 28°09' W 015°25'0 0.2
2017-Feb-15 17:33N 28°08' W 015°25'1313.1
2017-Feb-15 16:33N 28°06' W 015°10'1515.4
2017-Feb-15 15:33N 28°04' W 014°53'1615.7
2017-Feb-15 14:33N 28°02' W 014°35'1616.3
2017-Feb-15 13:33N 28°03' W 014°17'3315.4
2017-Feb-15 11:24N 28°25' W 013°49'5 1.3
2017-Feb-15 07:27N 28°30' W 013°51'1 1.2
2017-Feb-15 06:17N 28°29' W 013°50'1215.1
2017-Feb-15 05:29N 28°17' W 013°52'1415.2
2017-Feb-15 04:33N 28°08' W 014°05'3114.7
2017-Feb-15 02:27N 28°03' W 014°39'1415.6
2017-Feb-15 01:33N 28°04' W 014°55'1615.8
2017-Feb-15 00:33N 28°06' W 015°13'1110.8
2017-Feb-14 23:33N 28°09' W 015°25'0 0.0
2017-Feb-14 22:33N 28°09' W 015°25'0 0.0
2017-Feb-14 21:33N 28°09' W 015°25'0 0.0
2017-Feb-14 20:33N 28°09' W 015°25'0 0.0
2017-Feb-14 19:33N 28°09' W 015°25'0 0.0
2017-Feb-14 18:33N 28°09' W 015°25'1 1.1
2017-Feb-14 17:33N 28°07' W 015°24'1514.7
2017-Feb-14 16:33N 28°05' W 015°08'1515.3
2017-Feb-14 15:33N 28°04' W 014°51'1515.4
2017-Feb-14 14:33N 28°02' W 014°33'1715.8
2017-Feb-14 13:29N 28°04' W 014°14'32 4.5
2017-Feb-14 06:23N 28°27' W 013°50'2514.0
2017-Feb-14 04:33N 28°07' W 014°07'3214.7
2017-Feb-14 02:24N 28°03' W 014°43'1315.5
2017-Feb-14 01:33N 28°04' W 014°58'1615.6
2017-Feb-14 00:33N 28°06' W 015°15'9 8.8
2017-Feb-13 23:33N 28°08' W 015°25'0 0.0
2017-Feb-13 22:33N 28°08' W 015°25'0 0.0
2017-Feb-13 21:33N 28°08' W 015°25'0 0.0
2017-Feb-13 20:33N 28°08' W 015°25'0 0.0
2017-Feb-13 19:33N 28°08' W 015°25'0 0.0
2017-Feb-13 18:33N 28°08' W 015°25'0 0.0
2017-Feb-13 17:33N 28°08' W 015°25'0 0.0
2017-Feb-13 16:33N 28°08' W 015°25'0 0.0
2017-Feb-13 15:33N 28°08' W 015°25'0 0.0
2017-Feb-13 14:33N 28°08' W 015°25'0 0.0
2017-Feb-13 13:33N 28°08' W 015°25'0 0.0
2017-Feb-13 12:33N 28°08' W 015°25'0 0.0
2017-Feb-13 11:33N 28°08' W 015°25'0 0.0
2017-Feb-13 10:33N 28°08' W 015°25'0 0.0
2017-Feb-13 09:33N 28°08' W 015°25'0 0.0
2017-Feb-13 08:33N 28°08' W 015°25'0 0.0
2017-Feb-13 07:33N 28°08' W 015°25'0 0.0
2017-Feb-13 06:33N 28°08' W 015°25'0 0.0
2017-Feb-13 05:33N 28°08' W 015°25'0 0.0
2017-Feb-13 04:33N 28°08' W 015°25'0 0.0
2017-Feb-13 03:33N 28°08' W 015°25'0 0.0
2017-Feb-13 02:33N 28°08' W 015°25'0 0.0
2017-Feb-13 01:33N 28°08' W 015°25'0 0.0
2017-Feb-13 00:33N 28°08' W 015°25'0 0.0
2017-Feb-12 23:33N 28°08' W 015°25'0 0.0
2017-Feb-12 22:33N 28°08' W 015°25'0 0.0
2017-Feb-12 21:33N 28°08' W 015°25'0 0.0
2017-Feb-12 20:33N 28°08' W 015°25'0 0.0
2017-Feb-12 19:33N 28°08' W 015°25'0 0.0
2017-Feb-12 18:33N 28°08' W 015°25'0 0.0
2017-Feb-12 17:33N 28°08' W 015°25'0 0.0
2017-Feb-12 16:33N 28°08' W 015°25'0 0.0
2017-Feb-12 15:33N 28°08' W 015°25'0 0.0
2017-Feb-12 14:33N 28°08' W 015°25'0 0.0
2017-Feb-12 13:33N 28°08' W 015°25'0 0.0
2017-Feb-12 12:33N 28°08' W 015°25'0 0.0
2017-Feb-12 11:33N 28°08' W 015°25'0 0.0
2017-Feb-12 10:33N 28°08' W 015°25'0 0.0
2017-Feb-12 09:33N 28°08' W 015°25'0 0.0
2017-Feb-12 08:33N 28°08' W 015°25'0 0.0
2017-Feb-12 07:33N 28°08' W 015°25'0 0.0
2017-Feb-12 06:33N 28°08' W 015°25'0 0.0
2017-Feb-12 05:33N 28°08' W 015°25'0 0.0
2017-Feb-12 04:33N 28°08' W 015°25'0 0.0
2017-Feb-12 03:33N 28°08' W 015°25'0 0.0
2017-Feb-12 02:33N 28°08' W 015°25'  

Dump ship's entire track history